createdAt,value
2018-07-06T00:00:36.449Z,99.90
2018-07-06T00:03:51.651Z,99.90
2018-07-06T00:07:07.001Z,99.90
2018-07-06T00:10:22.224Z,99.90
2018-07-06T00:13:37.581Z,99.90
2018-07-06T00:16:52.793Z,99.90
2018-07-06T00:20:08.019Z,99.90
2018-07-06T00:23:23.341Z,99.90
2018-07-06T00:26:38.406Z,99.90
2018-07-06T00:29:53.688Z,99.90
2018-07-06T00:33:08.921Z,99.90
2018-07-06T00:36:23.989Z,99.90
2018-07-06T00:39:39.221Z,99.90
2018-07-06T00:42:54.566Z,99.90
2018-07-06T00:46:09.762Z,99.90
2018-07-06T00:52:34.317Z,99.90
2018-07-06T00:55:49.492Z,99.90
2018-07-06T00:59:04.873Z,99.90
2018-07-06T01:02:20.253Z,99.90
2018-07-06T01:05:35.357Z,99.90
2018-07-06T01:08:50.702Z,99.90
2018-07-06T01:12:11.509Z,99.90
2018-07-06T01:15:32.290Z,99.90
2018-07-06T01:18:47.505Z,99.90
2018-07-06T01:22:02.619Z,99.90
2018-07-06T01:25:17.989Z,99.90
2018-07-06T01:28:33.303Z,99.90
2018-07-06T01:31:48.678Z,99.90
2018-07-06T01:35:04.370Z,99.90
2018-07-06T01:38:19.620Z,99.90
2018-07-06T01:41:34.945Z,99.90
2018-07-06T01:44:50.469Z,99.90
2018-07-06T01:48:05.482Z,99.90
2018-07-06T01:51:20.737Z,99.90
2018-07-06T01:54:36.015Z,99.90
2018-07-06T01:57:51.181Z,99.90
2018-07-06T02:01:06.461Z,99.90
2018-07-06T02:04:21.742Z,99.90
2018-07-06T02:07:36.881Z,99.90
2018-07-06T02:10:52.257Z,99.90
2018-07-06T02:14:07.599Z,99.90
2018-07-06T02:17:22.696Z,99.90
2018-07-06T02:23:47.213Z,99.90
2018-07-06T02:27:02.422Z,99.90
2018-07-06T02:30:17.825Z,99.90
2018-07-06T02:33:33.022Z,99.90
2018-07-06T02:39:57.382Z,99.90
2018-07-06T02:43:12.745Z,99.90
2018-07-06T02:46:28.037Z,99.90
2018-07-06T02:49:43.201Z,99.90
2018-07-06T02:52:58.581Z,99.90
2018-07-06T02:56:13.955Z,99.90
2018-07-06T02:59:29.079Z,99.90
2018-07-06T03:05:54.135Z,99.90
2018-07-06T03:09:09.253Z,99.90
2018-07-06T03:12:24.473Z,99.90
2018-07-06T03:15:39.733Z,99.90
2018-07-06T03:18:55.085Z,99.90
2018-07-06T03:22:10.489Z,99.90
2018-07-06T03:25:25.886Z,99.90
2018-07-06T03:28:41.228Z,99.90
2018-07-06T03:35:05.541Z,99.90
2018-07-06T03:38:20.630Z,99.90
2018-07-06T03:41:35.990Z,99.90
2018-07-06T03:44:51.294Z,99.90
2018-07-06T03:48:06.668Z,99.90
2018-07-06T03:51:21.919Z,99.90
2018-07-06T03:54:37.106Z,99.90
2018-07-06T03:57:52.473Z,99.90
2018-07-06T04:01:07.769Z,99.90
2018-07-06T04:04:23.161Z,99.90
2018-07-06T04:07:38.313Z,99.90
2018-07-06T04:10:53.397Z,99.90
2018-07-06T04:14:08.851Z,99.90
2018-07-06T04:17:24.181Z,99.90
2018-07-06T04:20:39.240Z,99.90
2018-07-06T04:23:54.619Z,99.90
2018-07-06T04:27:10.735Z,99.90
2018-07-06T04:30:25.921Z,99.90
2018-07-06T04:39:59.187Z,99.90
2018-07-06T04:43:14.460Z,99.90
2018-07-06T04:46:29.610Z,99.90
2018-07-06T04:56:02.800Z,99.90
2018-07-06T04:59:18.039Z,99.90
2018-07-06T05:02:33.325Z,99.90
2018-07-06T05:05:48.496Z,99.90
2018-07-06T05:09:04.613Z,99.90
2018-07-06T05:12:19.764Z,99.90
2018-07-06T05:15:34.993Z,99.90
2018-07-06T05:18:50.213Z,99.90
2018-07-06T05:22:05.362Z,99.90
2018-07-06T05:25:20.728Z,99.90
2018-07-06T05:28:35.866Z,99.90
2018-07-06T05:31:51.102Z,99.90
2018-07-06T05:38:15.451Z,99.90
2018-07-06T05:41:30.525Z,99.90
2018-07-06T05:44:45.911Z,99.90
2018-07-06T05:51:10.261Z,99.90
2018-07-06T05:54:25.694Z,99.90
2018-07-06T05:57:40.996Z,99.90
2018-07-06T06:00:56.262Z,99.90
2018-07-06T06:04:11.576Z,99.90
2018-07-06T06:07:20.931Z,99.90
2018-07-06T06:10:24.550Z,99.90
2018-07-06T06:13:28.157Z,99.70
2018-07-06T06:19:35.162Z,99.50
2018-07-06T06:22:38.749Z,99.50
2018-07-06T06:25:42.361Z,99.90
2018-07-06T06:31:49.620Z,99.90
2018-07-06T06:34:53.417Z,99.90
2018-07-06T06:37:57.040Z,99.90
2018-07-06T06:41:00.931Z,99.90
2018-07-06T06:44:04.525Z,99.90
2018-07-06T06:47:09.110Z,99.90
2018-07-06T06:50:12.759Z,99.90
2018-07-06T06:53:16.448Z,99.80
2018-07-06T06:56:20.123Z,99.90
2018-07-06T06:59:23.997Z,99.90
2018-07-06T07:02:27.607Z,99.90
2018-07-06T07:05:31.321Z,99.90
2018-07-06T07:08:34.989Z,99.90
2018-07-06T07:11:38.650Z,99.90
2018-07-06T07:14:42.315Z,99.90
2018-07-06T07:17:46.630Z,99.90
2018-07-06T07:20:51.087Z,99.90
2018-07-06T07:23:54.713Z,99.90
2018-07-06T07:26:59.263Z,99.90
2018-07-06T07:30:02.921Z,99.90
2018-07-06T07:33:06.485Z,99.90
2018-07-06T07:36:10.178Z,99.90
2018-07-06T07:39:14.287Z,99.90
2018-07-06T07:42:18.095Z,99.90
2018-07-06T07:45:21.694Z,99.90
2018-07-06T07:48:25.346Z,99.90
2018-07-06T07:55:04.678Z,99.90
2018-07-06T07:58:08.517Z,99.50
2018-07-06T08:01:12.281Z,99.40
2018-07-06T08:04:15.773Z,99.30
2018-07-06T08:07:19.720Z,99.10
2018-07-06T08:10:23.629Z,98.80
2018-07-06T08:13:27.298Z,98.60
2018-07-06T08:16:30.925Z,98.70
2018-07-06T08:22:38.922Z,98.20
2018-07-06T08:25:42.706Z,98.20
2018-07-06T08:28:46.316Z,98.10
2018-07-06T08:31:49.922Z,97.80
2018-07-06T08:35:05.129Z,97.80
2018-07-06T08:41:12.725Z,98.10
2018-07-06T08:44:16.345Z,97.80
2018-07-06T08:50:24.665Z,97.50
2018-07-06T08:53:28.341Z,97.60
2018-07-06T08:56:32.091Z,97.50
2018-07-06T08:59:35.851Z,97.30
2018-07-06T09:02:39.470Z,97.40
2018-07-06T09:05:43.150Z,97.30
2018-07-06T09:08:46.858Z,97.90
2018-07-06T09:11:50.477Z,97.70
2018-07-06T09:14:54.368Z,97.50
2018-07-06T09:17:57.964Z,97.50
2018-07-06T09:21:01.677Z,97.60
2018-07-06T09:24:05.312Z,97.60
2018-07-06T09:27:08.956Z,97.80
2018-07-06T09:30:12.730Z,97.80
2018-07-06T09:33:16.333Z,97.50
2018-07-06T09:36:19.970Z,97.20
2018-07-06T09:39:23.683Z,97.10
2018-07-06T09:42:27.340Z,96.90
2018-07-06T09:45:30.925Z,96.70
2018-07-06T09:48:34.647Z,96.60
2018-07-06T09:51:38.291Z,96.90
2018-07-06T09:54:41.907Z,96.80
2018-07-06T09:57:45.711Z,96.80
2018-07-06T10:00:54.887Z,96.90
2018-07-06T10:03:58.592Z,96.70
2018-07-06T10:07:02.192Z,97.00
2018-07-06T10:13:09.237Z,97.60
2018-07-06T10:16:12.967Z,97.90
2018-07-06T10:19:17.601Z,98.10
2018-07-06T10:22:21.233Z,98.20
2018-07-06T10:25:24.868Z,98.30
2018-07-06T10:30:38.956Z,98.40
2018-07-06T10:33:42.652Z,98.80
2018-07-06T10:36:46.574Z,99.30
2018-07-06T10:39:50.925Z,99.50
2018-07-06T10:42:54.277Z,99.60
2018-07-06T10:45:57.969Z,99.60
2018-07-06T10:49:01.623Z,99.70
2018-07-06T10:52:05.629Z,99.70
2018-07-06T10:55:09.289Z,99.70
2018-07-06T10:58:12.982Z,99.60
2018-07-06T11:01:16.704Z,99.70
2018-07-06T11:04:20.549Z,99.60
2018-07-06T11:07:24.210Z,99.20
2018-07-06T11:10:27.821Z,99.30
2018-07-06T11:13:31.504Z,99.40
2018-07-06T11:16:35.417Z,99.90
2018-07-06T11:19:39.123Z,99.90
2018-07-06T11:22:42.742Z,99.90
2018-07-06T11:25:46.351Z,99.90
2018-07-06T11:28:50.080Z,99.90
2018-07-06T11:31:53.736Z,99.90
2018-07-06T11:34:57.429Z,99.90
2018-07-06T11:38:01.123Z,99.60
2018-07-06T11:41:04.734Z,99.40
2018-07-06T11:44:08.338Z,99.30
2018-07-06T11:47:11.972Z,99.30
2018-07-06T11:50:15.678Z,99.40
2018-07-06T11:53:19.346Z,99.60
2018-07-06T11:56:23.054Z,99.60
2018-07-06T11:59:27.316Z,99.80
2018-07-06T12:08:38.432Z,99.90
2018-07-06T12:14:45.789Z,99.90
2018-07-06T12:17:49.544Z,99.90
2018-07-06T12:20:53.401Z,99.90
2018-07-06T12:27:00.300Z,99.90
2018-07-06T12:30:04.059Z,99.70
2018-07-06T12:33:07.861Z,99.70
2018-07-06T12:36:11.610Z,99.70
2018-07-06T12:39:15.266Z,99.50
2018-07-06T12:42:18.917Z,99.20
2018-07-06T12:45:22.675Z,99.10
2018-07-06T12:48:26.282Z,99.10
2018-07-06T12:54:33.734Z,99.50
2018-07-06T12:57:37.389Z,99.60
2018-07-06T13:03:44.537Z,99.20
2018-07-06T13:06:48.294Z,99.10
2018-07-06T13:09:51.956Z,99.00
2018-07-06T13:12:55.641Z,98.60
2018-07-06T13:15:59.242Z,98.20
2018-07-06T13:19:02.872Z,97.80
2018-07-06T13:22:06.610Z,97.70
2018-07-06T13:25:10.593Z,97.50
2018-07-06T13:28:14.201Z,97.00
2018-07-06T13:31:17.875Z,96.70
2018-07-06T13:34:21.525Z,96.70
2018-07-06T13:40:29.278Z,96.90
2018-07-06T13:43:33.084Z,97.00
2018-07-06T13:46:36.751Z,96.90
2018-07-06T13:49:40.305Z,96.80
2018-07-06T13:52:44.414Z,96.60
2018-07-06T13:55:48.070Z,96.50
2018-07-06T14:01:55.127Z,96.50
2018-07-06T14:04:58.889Z,96.20
2018-07-06T14:08:02.534Z,95.90
2018-07-06T14:11:06.400Z,96.00
2018-07-06T14:14:10.028Z,96.00
2018-07-06T14:17:13.631Z,96.20
2018-07-06T14:20:17.352Z,96.10
2018-07-06T14:23:20.955Z,95.70
2018-07-06T14:26:24.595Z,95.40
2018-07-06T14:29:28.645Z,95.30
2018-07-06T14:32:32.274Z,94.80
2018-07-06T14:35:36.053Z,94.80
2018-07-06T14:38:39.807Z,94.80
2018-07-06T14:41:43.477Z,94.60
2018-07-06T14:44:47.179Z,94.40
2018-07-06T14:47:50.932Z,94.00
2018-07-06T14:50:54.637Z,93.90
2018-07-06T14:53:58.305Z,94.00
2018-07-06T14:57:01.942Z,93.90
2018-07-06T15:00:06.158Z,93.70
2018-07-06T15:03:09.934Z,93.20
2018-07-06T15:06:13.565Z,93.10
2018-07-06T15:09:17.187Z,93.30
2018-07-06T15:15:24.369Z,93.10
2018-07-06T15:18:27.949Z,93.30
2018-07-06T15:21:31.854Z,93.00
2018-07-06T15:24:36.265Z,93.00
2018-07-06T15:27:39.955Z,93.00
2018-07-06T15:30:43.617Z,92.90
2018-07-06T15:33:47.514Z,93.40
2018-07-06T15:36:51.115Z,93.80
2018-07-06T15:39:54.723Z,93.70
2018-07-06T15:42:58.323Z,93.40
2018-07-06T15:49:05.624Z,93.20
2018-07-06T15:52:09.327Z,93.10
2018-07-06T15:55:13.179Z,92.90
2018-07-06T15:58:16.897Z,92.80
2018-07-06T16:01:20.594Z,92.40
2018-07-06T16:04:24.264Z,92.50
2018-07-06T16:07:27.842Z,92.50
2018-07-06T16:19:44.969Z,92.90
2018-07-06T16:22:48.722Z,93.00
2018-07-06T16:25:52.378Z,92.70
2018-07-06T16:28:55.989Z,92.30
2018-07-06T16:31:59.598Z,92.20
2018-07-06T16:35:03.311Z,92.40
2018-07-06T16:38:07.038Z,92.60
2018-07-06T16:41:10.743Z,92.80
2018-07-06T16:44:14.445Z,92.50
2018-07-06T16:47:18.895Z,92.50
2018-07-06T16:53:25.930Z,92.30
2018-07-06T16:56:29.586Z,92.40
2018-07-06T16:59:33.290Z,92.60
2018-07-06T17:02:37.180Z,92.50
2018-07-06T17:05:40.884Z,92.50
2018-07-06T17:08:44.469Z,92.60
2018-07-06T17:11:48.189Z,92.70
2018-07-06T17:14:51.757Z,92.70
2018-07-06T17:17:55.598Z,92.50
2018-07-06T17:20:59.293Z,92.70
2018-07-06T17:24:03.008Z,92.10
2018-07-06T17:27:06.870Z,91.90
2018-07-06T17:30:10.502Z,91.90
2018-07-06T17:33:14.220Z,91.80
2018-07-06T17:36:17.839Z,91.70
2018-07-06T17:39:21.509Z,91.60
2018-07-06T17:42:25.330Z,91.50
2018-07-06T17:45:28.946Z,91.10
2018-07-06T17:48:32.539Z,90.60
2018-07-06T17:54:39.532Z,88.00
2018-07-06T17:57:43.180Z,87.70
2018-07-06T18:00:46.927Z,87.00
2018-07-06T18:03:50.548Z,87.50
2018-07-06T18:06:54.175Z,87.70
2018-07-06T18:09:57.846Z,87.50
2018-07-06T18:13:01.469Z,87.30
2018-07-06T18:16:05.405Z,87.00
2018-07-06T18:19:09.008Z,85.30
2018-07-06T18:22:12.766Z,84.50
2018-07-06T18:25:16.398Z,85.10
2018-07-06T18:28:20.052Z,82.60
2018-07-06T18:31:23.669Z,77.00
2018-07-06T18:34:27.405Z,75.70
2018-07-06T18:37:31.133Z,75.30
2018-07-06T18:43:38.049Z,72.90
2018-07-06T18:46:41.741Z,71.40
2018-07-06T18:49:45.447Z,71.90
2018-07-06T18:52:49.361Z,73.00
2018-07-06T18:55:52.997Z,72.40
2018-07-06T18:58:56.602Z,71.40
2018-07-06T19:05:06.279Z,70.40
2018-07-06T19:08:09.910Z,69.90
2018-07-06T19:11:13.573Z,70.20
2018-07-06T19:17:21.338Z,69.70
2018-07-06T19:20:24.997Z,70.80
2018-07-06T19:23:28.634Z,70.30
2018-07-06T19:26:32.247Z,70.80
2018-07-06T19:29:35.895Z,71.50
2018-07-06T19:35:42.887Z,73.30
2018-07-06T19:38:46.522Z,74.20
2018-07-06T19:41:50.174Z,74.80
2018-07-06T19:44:53.788Z,75.30
2018-07-06T19:51:00.753Z,76.10
2018-07-06T19:54:04.599Z,76.50
2018-07-06T20:00:12.244Z,77.60
2018-07-06T20:03:15.922Z,77.60
2018-07-06T20:06:19.579Z,78.10
2018-07-06T20:09:23.211Z,78.30
2018-07-06T20:12:27.060Z,79.20
2018-07-06T20:15:30.695Z,79.10
2018-07-06T20:18:34.333Z,79.50
2018-07-06T20:21:37.960Z,79.50
2018-07-06T20:24:41.666Z,80.00
2018-07-06T20:27:47.735Z,80.60
2018-07-06T20:30:51.506Z,80.70
2018-07-06T20:33:55.135Z,81.00
2018-07-06T20:36:58.751Z,81.30
2018-07-06T20:40:02.480Z,81.90
2018-07-06T20:43:06.166Z,81.70
2018-07-06T20:46:09.780Z,81.70
2018-07-06T20:49:13.603Z,81.70
2018-07-06T20:52:17.255Z,81.80
2018-07-06T20:55:21.373Z,81.90
2018-07-06T20:58:25.026Z,82.10
2018-07-06T21:01:28.708Z,82.20
2018-07-06T21:04:32.378Z,82.80
2018-07-06T21:07:36.057Z,82.40
2018-07-06T21:10:39.667Z,82.80
2018-07-06T21:13:43.325Z,82.60
2018-07-06T21:16:46.940Z,82.50
2018-07-06T21:19:50.583Z,82.40
2018-07-06T21:25:57.594Z,82.50
2018-07-06T21:29:01.229Z,82.50
2018-07-06T21:32:04.878Z,82.70
2018-07-06T21:35:08.518Z,82.40
2018-07-06T21:38:12.154Z,82.40
2018-07-06T21:41:15.758Z,82.60
2018-07-06T21:44:19.399Z,82.70
2018-07-06T21:47:23.038Z,83.10
2018-07-06T21:50:26.670Z,83.40
2018-07-06T21:53:30.507Z,83.20
2018-07-06T21:56:34.243Z,83.00
2018-07-06T21:59:37.849Z,83.10
2018-07-06T22:02:41.471Z,83.20
2018-07-06T22:05:45.084Z,83.20
2018-07-06T22:08:48.733Z,83.40
2018-07-06T22:11:52.449Z,83.60
2018-07-06T22:14:56.082Z,83.50
2018-07-06T22:17:59.690Z,83.00
2018-07-06T22:21:03.327Z,83.40
2018-07-06T22:24:06.931Z,84.00
2018-07-06T22:27:10.578Z,84.00
2018-07-06T22:30:14.182Z,84.00
2018-07-06T22:33:17.897Z,84.10
2018-07-06T22:36:21.513Z,84.30
2018-07-06T22:45:31.944Z,85.00
2018-07-06T22:51:38.889Z,85.20
2018-07-06T22:54:42.493Z,85.60
2018-07-06T22:57:46.222Z,86.20
2018-07-06T23:00:49.867Z,86.60
2018-07-06T23:03:53.515Z,87.30
2018-07-06T23:06:57.128Z,87.90
2018-07-06T23:13:04.231Z,89.20
2018-07-06T23:16:07.856Z,89.90
2018-07-06T23:19:11.471Z,90.20
2018-07-06T23:22:23.758Z,90.60
2018-07-06T23:25:27.367Z,90.90
2018-07-06T23:28:30.997Z,91.20
2018-07-06T23:31:34.636Z,91.50
2018-07-06T23:34:38.258Z,91.60
2018-07-06T23:37:41.885Z,92.00
2018-07-06T23:40:45.553Z,92.10
2018-07-06T23:43:49.135Z,92.30
2018-07-06T23:46:52.808Z,92.50
2018-07-06T23:49:56.494Z,92.80
2018-07-06T23:53:00.151Z,93.10
2018-07-06T23:56:03.758Z,93.60
